createdAt,value
2019-03-05T00:01:29.503Z,16.77
2019-03-05T00:03:58.337Z,19.37
2019-03-05T00:06:28.109Z,14.27
2019-03-05T00:08:56.049Z,13.03
2019-03-05T00:11:24.915Z,13.63
2019-03-05T00:13:53.462Z,10.60
2019-03-05T00:16:22.065Z,13.90
2019-03-05T00:18:52.576Z,12.83
2019-03-05T00:21:20.930Z,12.63
2019-03-05T00:23:54.643Z,13.60
2019-03-05T00:26:33.314Z,11.70
2019-03-05T00:29:56.786Z,11.33
2019-03-05T00:32:28.180Z,13.90
2019-03-05T00:35:22.673Z,12.13
2019-03-05T00:38:02.852Z,9.20
2019-03-05T00:41:14.464Z,20.57
2019-03-05T00:44:27.183Z,10.33
2019-03-05T00:47:18.690Z,13.47
2019-03-05T00:50:13.042Z,11.03
2019-03-05T00:53:10.096Z,13.07
2019-03-05T00:55:56.761Z,11.77
2019-03-05T00:58:29.520Z,8.23
2019-03-05T01:01:14.987Z,10.77
2019-03-05T01:04:11.896Z,10.50
2019-03-05T01:06:39.991Z,11.97
2019-03-05T01:09:15.240Z,12.83
2019-03-05T01:11:44.053Z,11.50
2019-03-05T01:14:12.977Z,12.13
2019-03-05T01:16:41.641Z,12.27
2019-03-05T01:19:09.697Z,9.83
2019-03-05T01:21:39.026Z,10.60
2019-03-05T01:24:07.768Z,15.60
2019-03-05T01:26:39.378Z,23.47
2019-03-05T01:29:07.643Z,13.63
2019-03-05T01:31:53.437Z,12.23
2019-03-05T01:34:45.979Z,6.93
2019-03-05T01:37:14.425Z,7.17
2019-03-05T01:40:11.864Z,3.83
2019-03-05T01:43:05.381Z,4.50
2019-03-05T01:45:46.816Z,5.60
2019-03-05T01:48:35.380Z,3.03
2019-03-05T01:51:32.146Z,3.30
2019-03-05T01:57:28.608Z,3.00
2019-03-05T02:00:16.929Z,2.60
2019-03-05T02:03:24.392Z,5.17
2019-03-05T02:06:32.784Z,2.87
2019-03-05T02:09:09.586Z,4.97
2019-03-05T02:21:31.116Z,4.37
2019-03-05T02:25:06.243Z,5.73
2019-03-05T02:31:48.147Z,5.57
2019-03-05T02:45:08.153Z,8.03
2019-03-05T02:48:10.320Z,9.20
2019-03-05T02:51:14.783Z,9.30
2019-03-05T02:54:00.262Z,6.63
2019-03-05T02:57:01.154Z,7.07
2019-03-05T02:59:29.677Z,11.33
2019-03-05T03:08:50.741Z,7.90
2019-03-05T03:11:20.842Z,7.60
2019-03-05T03:14:40.280Z,10.60
2019-03-05T03:17:43.242Z,10.53
2019-03-05T03:20:18.420Z,9.37
2019-03-05T03:25:53.680Z,7.87
2019-03-05T03:51:26.135Z,4.93
2019-03-05T03:56:49.994Z,5.67
2019-03-05T03:59:17.678Z,6.80
2019-03-05T04:01:45.453Z,9.17
2019-03-05T04:04:13.710Z,6.03
2019-03-05T04:06:41.418Z,7.73
2019-03-05T04:09:10.678Z,5.17
2019-03-05T04:11:38.056Z,8.83
2019-03-05T04:14:05.466Z,7.67
2019-03-05T04:16:32.953Z,6.17
2019-03-05T04:19:02.639Z,5.73
2019-03-05T04:21:30.726Z,6.03
2019-03-05T04:23:58.784Z,3.90
2019-03-05T04:26:26.179Z,5.73
2019-03-05T04:28:53.968Z,5.40
2019-03-05T04:31:21.578Z,6.47
2019-03-05T04:33:49.916Z,5.40
2019-03-05T04:36:17.160Z,6.27
2019-03-05T04:38:44.645Z,5.07
2019-03-05T04:41:12.639Z,7.80
2019-03-05T04:43:40.458Z,6.93
2019-03-05T04:46:28.498Z,7.63
2019-03-05T04:49:27.502Z,4.93
2019-03-05T04:51:58.245Z,7.63
2019-03-05T04:54:25.897Z,6.50
2019-03-05T04:56:53.728Z,8.50
2019-03-05T04:59:21.547Z,8.47
2019-03-05T05:01:49.020Z,8.67
2019-03-05T05:04:16.968Z,7.90
2019-03-05T05:06:45.959Z,8.63
2019-03-05T05:09:14.541Z,6.27
2019-03-05T05:11:42.187Z,6.17
2019-03-05T05:14:09.941Z,6.90
2019-03-05T05:16:37.507Z,6.73
2019-03-05T05:19:05.405Z,9.20
2019-03-05T05:21:35.861Z,9.83
2019-03-05T05:24:03.366Z,7.87
2019-03-05T05:26:30.920Z,9.30
2019-03-05T05:28:58.465Z,8.87
2019-03-05T05:31:26.122Z,7.43
2019-03-05T05:33:53.772Z,4.70
2019-03-05T05:36:21.250Z,7.27
2019-03-05T05:38:48.907Z,7.87
2019-03-05T05:41:16.557Z,11.97
2019-03-05T05:43:44.625Z,6.80
2019-03-05T05:46:12.498Z,9.47
2019-03-05T05:48:40.153Z,8.77
2019-03-05T05:51:08.015Z,9.83
2019-03-05T05:53:36.146Z,8.70
2019-03-05T05:56:03.683Z,10.23
2019-03-05T05:58:31.851Z,8.67
2019-03-05T06:01:01.418Z,7.50
2019-03-05T06:03:29.182Z,9.73
2019-03-05T06:05:57.770Z,10.57
2019-03-05T06:08:25.671Z,7.97
2019-03-05T06:10:53.427Z,12.43
2019-03-05T06:13:21.166Z,11.67
2019-03-05T06:15:48.912Z,7.53
2019-03-05T06:18:16.399Z,10.17
2019-03-05T06:20:44.100Z,8.20
2019-03-05T06:23:13.190Z,9.33
2019-03-05T06:25:41.051Z,11.23
2019-03-05T06:28:09.234Z,10.97
2019-03-05T06:30:36.890Z,14.17
2019-03-05T06:33:04.385Z,15.33
2019-03-05T06:35:35.627Z,9.47
2019-03-05T06:38:03.578Z,14.00
2019-03-05T06:40:34.212Z,7.87
2019-03-05T06:43:04.840Z,7.57
2019-03-05T06:45:32.768Z,14.93
2019-03-05T06:48:00.693Z,12.77
2019-03-05T06:50:28.616Z,16.63
2019-03-05T06:52:56.685Z,12.73
2019-03-05T06:55:24.572Z,9.30
2019-03-05T06:57:52.558Z,11.57
2019-03-05T07:00:31.929Z,8.10
2019-03-05T07:03:03.266Z,12.07
2019-03-05T07:06:07.282Z,12.17
2019-03-05T07:08:36.841Z,11.50
2019-03-05T07:11:58.696Z,10.90
2019-03-05T07:15:04.607Z,8.57
2019-03-05T07:17:39.323Z,10.93
2019-03-05T07:20:41.197Z,12.57
2019-03-05T07:23:31.653Z,12.40
2019-03-05T07:26:00.084Z,12.17
2019-03-05T07:28:30.817Z,11.53
2019-03-05T07:30:58.890Z,8.63
2019-03-05T07:33:27.170Z,8.03
2019-03-05T07:35:57.754Z,9.27
2019-03-05T07:38:32.705Z,9.33
2019-03-05T07:41:03.446Z,10.83
2019-03-05T07:43:36.768Z,8.63
2019-03-05T07:46:05.640Z,9.97
2019-03-05T07:48:33.714Z,7.83
2019-03-05T07:51:08.341Z,9.67
2019-03-05T07:53:41.179Z,7.33
2019-03-05T07:56:16.846Z,10.43
2019-03-05T07:58:47.246Z,7.83
2019-03-05T08:01:22.437Z,8.83
2019-03-05T08:03:49.656Z,10.50
2019-03-05T08:06:18.221Z,9.03
2019-03-05T08:09:22.839Z,9.37
2019-03-05T08:11:51.916Z,11.37
2019-03-05T08:15:01.649Z,7.10
2019-03-05T08:17:30.481Z,9.00
2019-03-05T08:19:59.052Z,10.00
2019-03-05T08:22:27.444Z,9.37
2019-03-05T08:24:55.633Z,12.97
2019-03-05T08:27:23.449Z,11.00
2019-03-05T08:29:52.375Z,10.00
2019-03-05T08:32:20.806Z,10.43
2019-03-05T08:34:49.276Z,7.27
2019-03-05T08:37:17.242Z,9.60
2019-03-05T08:39:45.510Z,13.10
2019-03-05T08:42:13.964Z,8.07
2019-03-05T08:44:50.440Z,10.60
2019-03-05T08:47:15.401Z,7.03
2019-03-05T08:49:46.828Z,9.07
2019-03-05T08:52:15.080Z,8.80
2019-03-05T08:54:48.146Z,12.27
2019-03-05T08:57:22.064Z,8.57
2019-03-05T08:59:50.574Z,14.10
2019-03-05T09:02:18.804Z,7.47
2019-03-05T09:04:46.681Z,6.27
2019-03-05T09:07:15.936Z,7.13
2019-03-05T09:09:43.949Z,11.20
2019-03-05T09:12:12.155Z,9.87
2019-03-05T09:14:49.424Z,7.33
2019-03-05T09:17:16.832Z,11.13
2019-03-05T09:19:45.959Z,10.80
2019-03-05T09:22:14.304Z,8.63
2019-03-05T09:24:42.457Z,5.83
2019-03-05T09:27:10.687Z,5.40
2019-03-05T09:29:38.350Z,8.47
2019-03-05T09:32:06.650Z,11.73
2019-03-05T09:34:35.069Z,9.50
2019-03-05T09:37:03.756Z,9.73
2019-03-05T09:39:31.734Z,9.43
2019-03-05T09:42:02.684Z,11.13
2019-03-05T09:44:30.496Z,11.47
2019-03-05T09:46:58.061Z,3.87
2019-03-05T09:49:26.652Z,8.30
2019-03-05T09:51:55.722Z,7.50
2019-03-05T09:54:24.261Z,11.90
2019-03-05T09:56:52.428Z,7.60
2019-03-05T09:59:23.505Z,10.00
2019-03-05T10:01:53.502Z,12.20
2019-03-05T10:04:21.961Z,7.10
2019-03-05T10:06:50.116Z,8.93
2019-03-05T10:09:18.493Z,7.70
2019-03-05T10:11:46.865Z,12.10
2019-03-05T10:14:14.713Z,11.47
2019-03-05T10:16:42.949Z,6.90
2019-03-05T10:19:10.795Z,11.47
2019-03-05T10:21:46.319Z,10.20
2019-03-05T10:24:10.713Z,7.20
2019-03-05T10:26:50.125Z,10.63
2019-03-05T10:29:18.077Z,7.93
2019-03-05T10:31:47.376Z,8.37
2019-03-05T10:34:14.964Z,8.60
2019-03-05T10:36:43.122Z,6.77
2019-03-05T10:39:31.037Z,9.67
2019-03-05T10:41:57.755Z,11.40
2019-03-05T10:44:27.852Z,10.23
2019-03-05T10:46:56.219Z,8.73
2019-03-05T10:49:24.763Z,7.03
2019-03-05T10:51:53.283Z,7.67
2019-03-05T10:57:56.071Z,7.30
2019-03-05T11:00:30.235Z,5.43
2019-03-05T11:03:01.796Z,6.33
2019-03-05T11:05:33.846Z,2.60
2019-03-05T11:08:06.213Z,2.83
2019-03-05T11:10:34.666Z,2.70
2019-03-05T11:13:04.595Z,4.13
2019-03-05T11:15:37.215Z,2.83
2019-03-05T11:18:07.373Z,3.63
2019-03-05T11:21:05.435Z,3.00
2019-03-05T11:23:34.019Z,4.37
2019-03-05T11:26:09.460Z,4.57
2019-03-05T11:28:38.147Z,5.10
2019-03-05T11:31:06.865Z,4.57
2019-03-05T11:33:36.195Z,4.70
2019-03-05T11:36:04.592Z,5.53
2019-03-05T11:38:34.803Z,3.40
2019-03-05T11:41:05.055Z,5.77
2019-03-05T11:43:33.339Z,4.07
2019-03-05T11:46:05.299Z,5.03
2019-03-05T11:48:33.251Z,6.30
2019-03-05T11:51:03.381Z,3.33
2019-03-05T11:53:31.795Z,3.60
2019-03-05T11:56:00.766Z,4.10
2019-03-05T11:58:28.441Z,5.10
2019-03-05T12:01:15.440Z,2.13
2019-03-05T12:03:46.451Z,3.00
2019-03-05T12:06:14.746Z,2.97
2019-03-05T12:08:44.512Z,4.27
2019-03-05T12:11:12.253Z,3.50
2019-03-05T12:13:40.125Z,4.63
2019-03-05T12:16:11.572Z,2.00
2019-03-05T12:18:50.888Z,3.83
2019-03-05T12:21:19.037Z,2.50
2019-03-05T12:23:55.530Z,2.33
2019-03-05T12:26:21.173Z,1.57
2019-03-05T12:28:48.920Z,2.83
2019-03-05T12:31:16.672Z,1.97
2019-03-05T12:33:46.637Z,1.37
2019-03-05T12:36:15.485Z,2.03
2019-03-05T12:38:46.057Z,2.23
2019-03-05T12:41:12.971Z,1.00
2019-03-05T12:43:40.935Z,2.40
2019-03-05T12:46:08.442Z,1.77
2019-03-05T12:48:39.823Z,1.97
2019-03-05T12:51:06.017Z,4.40
2019-03-05T12:53:34.419Z,3.70
2019-03-05T12:56:02.300Z,7.30
2019-03-05T12:58:31.742Z,4.67
2019-03-05T13:01:03.272Z,4.80
2019-03-05T13:03:31.341Z,4.77
2019-03-05T13:05:59.866Z,2.93
2019-03-05T13:12:01.627Z,3.97
2019-03-05T13:17:34.056Z,6.47
2019-03-05T13:20:02.036Z,5.63
2019-03-05T13:22:29.999Z,5.23
2019-03-05T13:24:57.987Z,2.13
2019-03-05T13:27:28.064Z,6.67
2019-03-05T13:29:56.967Z,4.27
2019-03-05T13:32:25.302Z,7.77
2019-03-05T13:34:55.937Z,6.50
2019-03-05T13:37:38.131Z,7.07
2019-03-05T13:40:07.772Z,4.53
2019-03-05T13:42:47.711Z,6.03
2019-03-05T13:45:22.348Z,5.77
2019-03-05T13:48:40.466Z,4.63
2019-03-05T13:51:19.490Z,6.27
2019-03-05T13:54:43.926Z,10.03
2019-03-05T13:58:03.953Z,7.20
2019-03-05T14:00:33.490Z,8.87
2019-03-05T14:03:23.071Z,9.53
2019-03-05T14:06:43.939Z,9.40
2019-03-05T14:09:25.811Z,9.77
2019-03-05T14:11:54.190Z,9.97
2019-03-05T14:14:30.048Z,7.40
2019-03-05T14:17:37.448Z,10.57
2019-03-05T14:20:18.571Z,8.37
2019-03-05T14:23:09.708Z,10.57
2019-03-05T14:26:21.374Z,9.20
2019-03-05T14:35:34.757Z,9.40
2019-03-05T14:41:12.067Z,8.07
2019-03-05T14:43:46.670Z,10.17
2019-03-05T14:46:15.850Z,11.23
2019-03-05T14:48:48.813Z,8.70
2019-03-05T14:51:22.878Z,7.70
2019-03-05T14:53:50.848Z,7.53
2019-03-05T14:56:19.306Z,7.20
2019-03-05T15:05:43.877Z,9.30
2019-03-05T15:08:11.971Z,10.33
2019-03-05T15:11:07.679Z,11.30
2019-03-05T15:13:35.828Z,10.57
2019-03-05T15:16:10.738Z,8.13
2019-03-05T15:18:39.464Z,10.97
2019-03-05T15:21:09.905Z,14.83
2019-03-05T15:23:39.476Z,11.03
2019-03-05T15:26:09.693Z,9.87
2019-03-05T15:28:38.946Z,9.90
2019-03-05T15:34:03.893Z,7.80
2019-03-05T15:36:35.504Z,9.70
2019-03-05T15:39:05.767Z,9.67
2019-03-05T15:41:34.044Z,12.80
2019-03-05T15:44:02.725Z,8.50
2019-03-05T15:46:31.970Z,8.80
2019-03-05T15:49:07.183Z,10.73
2019-03-05T15:51:38.789Z,9.13
2019-03-05T15:54:07.341Z,5.27
2019-03-05T15:56:52.736Z,9.33
2019-03-05T15:59:23.324Z,5.70
2019-03-05T16:02:04.970Z,8.13
2019-03-05T16:04:35.993Z,7.13
2019-03-05T16:07:35.305Z,5.77
2019-03-05T16:10:04.688Z,5.47
2019-03-05T16:12:34.043Z,4.33
2019-03-05T16:15:05.198Z,7.97
2019-03-05T16:24:01.712Z,10.57
2019-03-05T16:26:56.828Z,6.07
2019-03-05T16:29:25.101Z,6.47
2019-03-05T16:38:44.770Z,6.83
2019-03-05T16:41:57.203Z,6.80
2019-03-05T16:44:41.418Z,5.50
2019-03-05T16:53:36.636Z,8.07
2019-03-05T16:56:24.497Z,10.23
2019-03-05T16:59:21.378Z,6.37
2019-03-05T17:02:07.711Z,10.07
2019-03-05T17:05:04.256Z,6.17
2019-03-05T17:07:59.133Z,8.33
2019-03-05T17:16:55.083Z,8.30
2019-03-05T17:22:32.232Z,6.20
2019-03-05T17:25:02.588Z,4.53
2019-03-05T17:27:32.741Z,7.33
2019-03-05T17:30:00.665Z,7.23
2019-03-05T17:32:29.403Z,6.10
2019-03-05T17:34:58.214Z,6.30
2019-03-05T17:37:28.249Z,6.53
2019-03-05T17:40:02.168Z,8.97
2019-03-05T17:42:30.431Z,5.30
2019-03-05T17:44:58.460Z,4.60
2019-03-05T17:47:33.968Z,4.27
2019-03-05T17:50:01.987Z,4.37
2019-03-05T18:01:46.269Z,5.93
2019-03-05T18:11:12.314Z,5.27
2019-03-05T18:13:40.908Z,5.17
2019-03-05T18:16:08.941Z,7.10
2019-03-05T18:18:36.568Z,6.57
2019-03-05T18:21:05.973Z,5.60
2019-03-05T18:23:34.428Z,5.33
2019-03-05T18:26:03.785Z,5.97
2019-03-05T18:28:31.967Z,6.00
2019-03-05T18:31:03.829Z,7.57
2019-03-05T18:33:45.637Z,5.47
2019-03-05T18:36:13.307Z,6.53
2019-03-05T18:38:41.628Z,7.13
2019-03-05T18:41:09.515Z,7.20
2019-03-05T18:43:39.281Z,5.83
2019-03-05T18:46:07.705Z,7.80
2019-03-05T18:48:37.911Z,5.33
2019-03-05T18:51:06.559Z,6.17
2019-03-05T18:53:35.328Z,8.23
2019-03-05T18:56:04.229Z,5.63
2019-03-05T18:58:46.793Z,8.83
2019-03-05T19:01:13.225Z,12.10
2019-03-05T19:03:41.085Z,8.03
2019-03-05T20:08:06.202Z,10.50
2019-03-05T20:10:34.919Z,6.97
2019-03-05T20:13:04.052Z,8.67
2019-03-05T20:15:34.267Z,11.03
2019-03-05T20:18:07.391Z,6.07
2019-03-05T20:20:39.889Z,8.90
2019-03-05T20:23:08.651Z,7.10
2019-03-05T20:25:38.461Z,8.73
2019-03-05T20:28:07.524Z,10.03
2019-03-05T20:30:41.042Z,10.30
2019-03-05T20:33:13.951Z,8.90
2019-03-05T20:35:42.451Z,6.37
2019-03-05T20:38:12.791Z,12.60
2019-03-05T20:44:14.057Z,4.50
2019-03-05T20:46:43.647Z,5.70
2019-03-05T20:49:15.538Z,9.53
2019-03-05T20:51:45.240Z,6.57
2019-03-05T20:54:13.430Z,6.30
2019-03-05T20:56:41.565Z,11.00
2019-03-05T20:59:10.070Z,7.43
2019-03-05T21:01:41.031Z,8.40
2019-03-05T21:04:09.319Z,10.87
2019-03-05T21:06:37.396Z,7.73
2019-03-05T21:09:17.136Z,9.63
2019-03-05T21:11:45.617Z,12.00
2019-03-05T21:14:14.459Z,7.93
2019-03-05T21:16:43.040Z,9.93
2019-03-05T21:19:13.228Z,8.03
2019-03-05T21:21:41.772Z,10.17
2019-03-05T21:24:20.452Z,11.63
2019-03-05T21:26:48.888Z,8.10
2019-03-05T21:29:21.269Z,7.67
2019-03-05T21:31:50.421Z,10.50
2019-03-05T21:37:35.343Z,9.93
2019-03-05T21:40:03.914Z,10.20
2019-03-05T21:42:33.043Z,8.80
2019-03-05T21:45:03.929Z,9.87
2019-03-05T21:47:31.489Z,10.50
2019-03-05T21:49:59.776Z,7.77
2019-03-05T21:52:28.374Z,8.53
2019-03-05T21:54:57.010Z,9.67
2019-03-05T21:57:25.554Z,11.07
2019-03-05T21:59:53.674Z,12.20
2019-03-05T22:02:22.980Z,11.73
2019-03-05T22:04:51.324Z,12.80
2019-03-05T22:07:19.565Z,12.70
2019-03-05T22:09:48.163Z,11.77
2019-03-05T22:12:16.825Z,13.10
2019-03-05T22:14:44.835Z,14.43
2019-03-05T22:17:13.209Z,10.00
2019-03-05T22:19:41.550Z,10.93
2019-03-05T22:22:10.038Z,10.50
2019-03-05T22:24:39.127Z,9.77
2019-03-05T22:27:07.287Z,12.77
2019-03-05T22:29:37.761Z,9.57
2019-03-05T22:32:06.282Z,9.37
2019-03-05T22:34:34.529Z,13.60
2019-03-05T22:37:06.386Z,14.20
2019-03-05T22:39:35.006Z,16.70
2019-03-05T22:42:03.144Z,14.00
2019-03-05T22:44:31.281Z,11.40
2019-03-05T22:46:59.693Z,14.63
2019-03-05T22:49:27.864Z,12.53
2019-03-05T22:51:55.639Z,16.40
2019-03-05T22:54:23.835Z,16.77
2019-03-05T22:56:52.311Z,16.27
2019-03-05T22:59:20.781Z,18.60
2019-03-05T23:01:49.028Z,15.17
2019-03-05T23:04:23.509Z,16.27
2019-03-05T23:06:51.874Z,16.17
2019-03-05T23:09:27.136Z,15.40
2019-03-05T23:11:55.715Z,15.50
2019-03-05T23:14:23.690Z,17.50
2019-03-05T23:16:52.229Z,17.83
2019-03-05T23:19:20.863Z,15.47
2019-03-05T23:21:49.476Z,17.47
2019-03-05T23:24:18.161Z,15.97
2019-03-05T23:26:46.187Z,15.37
2019-03-05T23:29:15.175Z,16.57
2019-03-05T23:31:43.693Z,15.37
2019-03-05T23:34:18.237Z,19.27
2019-03-05T23:36:42.402Z,14.63
2019-03-05T23:39:16.344Z,16.57
2019-03-05T23:41:47.081Z,13.83
2019-03-05T23:44:16.022Z,17.10
2019-03-05T23:46:44.931Z,14.70
2019-03-05T23:49:14.519Z,15.90
2019-03-05T23:51:42.498Z,16.97
2019-03-05T23:54:11.057Z,17.13
2019-03-05T23:56:39.869Z,14.60
2019-03-05T23:59:08.339Z,15.60
